createdAt,value
2023-04-28T00:02:20.314Z,101049.19
2023-04-28T00:04:48.153Z,101049.59
2023-04-28T00:07:15.407Z,101046.81
2023-04-28T00:09:42.613Z,101042.16
2023-04-28T00:12:10.120Z,101040.81
2023-04-28T00:14:37.319Z,101042.66
2023-04-28T00:17:04.852Z,101038.53
2023-04-28T00:19:32.534Z,101042.84
2023-04-28T00:21:59.703Z,101038.72
2023-04-28T00:24:26.964Z,101037.19
2023-04-28T00:26:54.516Z,101032.06
2023-04-28T00:29:21.738Z,101036.50
2023-04-28T00:31:49.050Z,101028.19
2023-04-28T00:34:16.803Z,101035.94
2023-04-28T00:36:44.663Z,101029.06
2023-04-28T00:39:12.061Z,101028.97
2023-04-28T00:41:39.673Z,101030.00
2023-04-28T00:44:07.052Z,101032.66
2023-04-28T00:46:34.332Z,101029.38
2023-04-28T00:49:01.828Z,101025.28
2023-04-28T00:51:29.221Z,101022.12
2023-04-28T00:53:57.307Z,101031.66
2023-04-28T00:56:27.530Z,101036.09
2023-04-28T00:58:54.869Z,101037.13
2023-04-28T01:01:22.540Z,101037.84
2023-04-28T01:03:50.399Z,101036.22
2023-04-28T01:06:18.393Z,101043.22
2023-04-28T01:08:48.782Z,101043.16
2023-04-28T01:11:17.004Z,101038.69
2023-04-28T01:13:46.376Z,101042.12
2023-04-28T01:16:13.598Z,101043.13
2023-04-28T01:18:47.705Z,101046.59
2023-04-28T01:21:15.652Z,101034.66
2023-04-28T01:23:46.391Z,101042.31
2023-04-28T01:26:13.640Z,101042.41
2023-04-28T01:28:40.961Z,101040.63
2023-04-28T01:31:08.521Z,101043.22
2023-04-28T01:33:36.916Z,101037.00
2023-04-28T01:36:04.357Z,101043.81
2023-04-28T01:38:31.866Z,101040.19
2023-04-28T01:40:59.456Z,101033.47
2023-04-28T01:43:26.740Z,101039.47
2023-04-28T01:45:54.316Z,101042.97
2023-04-28T01:48:21.600Z,101030.97
2023-04-28T01:50:48.857Z,101029.41
2023-04-28T01:53:20.540Z,101036.28
2023-04-28T01:55:48.007Z,101028.97
2023-04-28T01:58:15.971Z,101034.34
2023-04-28T02:00:43.219Z,101033.63
2023-04-28T02:03:11.093Z,101036.19
2023-04-28T02:05:38.433Z,101031.97
2023-04-28T02:08:05.902Z,101030.91
2023-04-28T02:10:33.473Z,101042.03
2023-04-28T02:13:00.833Z,101041.38
2023-04-28T02:15:28.049Z,101044.66
2023-04-28T02:17:55.663Z,101047.25
2023-04-28T02:20:22.937Z,101048.94
2023-04-28T02:22:50.447Z,101050.66
2023-04-28T02:25:18.098Z,101048.16
2023-04-28T02:27:45.285Z,101048.31
2023-04-28T02:30:13.009Z,101049.81
2023-04-28T02:32:40.204Z,101052.50
2023-04-28T02:35:07.986Z,101060.97
2023-04-28T02:37:35.546Z,101054.84
2023-04-28T02:40:02.846Z,101053.22
2023-04-28T02:42:30.904Z,101049.03
2023-04-28T02:44:58.484Z,101052.50
2023-04-28T02:47:25.674Z,101055.91
2023-04-28T02:49:52.973Z,101051.69
2023-04-28T02:52:20.467Z,101053.38
2023-04-28T02:54:49.233Z,101054.28
2023-04-28T02:57:16.571Z,101051.88
2023-04-28T02:59:44.062Z,101049.28
2023-04-28T03:02:12.595Z,101056.12
2023-04-28T03:04:39.871Z,101055.13
2023-04-28T03:07:07.418Z,101066.16
2023-04-28T03:09:34.830Z,101060.94
2023-04-28T03:12:03.465Z,101052.41
2023-04-28T03:14:31.369Z,101058.41
2023-04-28T03:16:58.567Z,101057.37
2023-04-28T03:19:26.626Z,101065.09
2023-04-28T03:21:54.298Z,101066.75
2023-04-28T03:24:21.776Z,101065.19
2023-04-28T03:26:50.624Z,101063.63
2023-04-28T03:29:18.143Z,101061.16
2023-04-28T03:31:45.523Z,101062.78
2023-04-28T03:34:12.774Z,101063.53
2023-04-28T03:36:40.481Z,101066.19
2023-04-28T03:39:09.825Z,101067.03
2023-04-28T03:41:37.014Z,101066.38
2023-04-28T03:44:08.644Z,101070.81
2023-04-28T03:46:36.168Z,101059.81
2023-04-28T03:49:03.543Z,101066.50
2023-04-28T03:51:33.160Z,101071.59
2023-04-28T03:54:01.497Z,101068.88
2023-04-28T03:56:29.021Z,101074.88
2023-04-28T03:58:56.636Z,101068.88
2023-04-28T04:01:25.077Z,101077.37
2023-04-28T04:03:53.917Z,101080.81
2023-04-28T04:06:21.671Z,101077.03
2023-04-28T04:08:49.434Z,101081.97
2023-04-28T04:11:17.000Z,101086.00
2023-04-28T04:13:44.685Z,101085.75
2023-04-28T04:16:12.162Z,101089.62
2023-04-28T04:18:39.671Z,101089.50
2023-04-28T04:21:07.502Z,101093.56
2023-04-28T04:23:34.937Z,101085.53
2023-04-28T04:26:02.393Z,101089.41
2023-04-28T04:28:29.636Z,101093.72
2023-04-28T04:30:56.890Z,101094.06
2023-04-28T04:33:24.373Z,101100.28
2023-04-28T04:35:51.838Z,101092.31
2023-04-28T04:38:19.047Z,101097.97
2023-04-28T04:40:46.837Z,101091.59
2023-04-28T04:43:14.248Z,101092.47
2023-04-28T04:45:42.282Z,101089.84
2023-04-28T04:48:10.124Z,101091.28
2023-04-28T04:50:37.515Z,101091.06
2023-04-28T04:53:04.958Z,101092.69
2023-04-28T04:55:33.026Z,101085.44
2023-04-28T04:58:00.713Z,101084.72
2023-04-28T05:00:31.245Z,101079.22
2023-04-28T05:02:59.292Z,101087.81
2023-04-28T05:05:26.976Z,101082.31
2023-04-28T05:07:55.117Z,101088.88
2023-04-28T05:10:22.746Z,101083.44
2023-04-28T05:12:50.042Z,101090.31
2023-04-28T05:15:17.875Z,101091.84
2023-04-28T05:17:47.003Z,101090.66
2023-04-28T05:20:14.868Z,101095.97
2023-04-28T05:22:42.102Z,101098.56
2023-04-28T05:25:09.875Z,101098.13
2023-04-28T05:27:43.349Z,101095.50
2023-04-28T05:30:11.032Z,101099.91
2023-04-28T05:32:39.150Z,101096.69
2023-04-28T05:35:06.998Z,101099.88
2023-04-28T05:37:34.588Z,101091.06
2023-04-28T05:40:01.804Z,101090.47
2023-04-28T05:42:30.171Z,101100.16
2023-04-28T05:44:57.926Z,101100.00
2023-04-28T05:47:25.800Z,101096.16
2023-04-28T05:49:53.090Z,101099.25
2023-04-28T05:52:20.761Z,101104.34
2023-04-28T05:54:47.973Z,101107.13
2023-04-28T05:57:15.388Z,101110.84
2023-04-28T05:59:43.683Z,101102.25
2023-04-28T06:02:14.243Z,101098.06
2023-04-28T06:04:42.030Z,101091.63
2023-04-28T06:07:10.164Z,101106.56
2023-04-28T06:09:39.232Z,101108.44
2023-04-28T06:12:07.272Z,101111.16
2023-04-28T06:14:36.292Z,101117.16
2023-04-28T06:17:04.745Z,101109.25
2023-04-28T06:19:32.302Z,101113.59
2023-04-28T06:21:59.562Z,101112.38
2023-04-28T06:24:26.784Z,101108.19
2023-04-28T06:26:55.568Z,101109.25
2023-04-28T06:29:24.085Z,101109.16
2023-04-28T06:31:52.765Z,101104.50
2023-04-28T06:34:20.657Z,101107.81
2023-04-28T06:36:48.502Z,101104.75
2023-04-28T06:39:15.704Z,101106.22
2023-04-28T06:41:43.328Z,101109.78
2023-04-28T06:44:11.928Z,101102.16
2023-04-28T06:46:39.287Z,101106.66
2023-04-28T06:49:06.797Z,101113.50
2023-04-28T06:51:34.530Z,101111.03
2023-04-28T06:54:01.859Z,101115.78
2023-04-28T06:56:29.399Z,101107.91
2023-04-28T06:58:59.983Z,101112.78
2023-04-28T07:01:27.277Z,101116.22
2023-04-28T07:03:54.930Z,101115.69
2023-04-28T07:06:22.325Z,101104.09
2023-04-28T07:08:49.614Z,101095.59
2023-04-28T07:11:17.121Z,101107.56
2023-04-28T07:13:46.476Z,101105.28
2023-04-28T07:16:13.795Z,101108.72
2023-04-28T07:18:41.430Z,101108.00
2023-04-28T07:21:08.895Z,101112.78
2023-04-28T07:23:38.719Z,101111.78
2023-04-28T07:26:06.526Z,101105.63
2023-04-28T07:28:34.077Z,101099.62
2023-04-28T07:31:01.322Z,101105.09
2023-04-28T07:33:28.891Z,101106.22
2023-04-28T07:35:56.241Z,101099.09
2023-04-28T07:38:23.564Z,101100.19
2023-04-28T07:43:19.323Z,101100.06
2023-04-28T07:45:49.046Z,101095.41
2023-04-28T07:48:16.708Z,101088.69
2023-04-28T07:50:44.014Z,101096.19
2023-04-28T07:53:11.240Z,101091.03
2023-04-28T07:55:38.885Z,101085.50
2023-04-28T07:58:06.174Z,101077.84
2023-04-28T08:00:33.464Z,101070.56
2023-04-28T08:03:01.243Z,101064.25
2023-04-28T08:05:28.745Z,101060.19
2023-04-28T08:07:56.045Z,101059.44
2023-04-28T08:10:23.577Z,101057.53
2023-04-28T08:12:51.311Z,101051.84
2023-04-28T08:15:18.830Z,101046.91
2023-04-28T08:17:47.634Z,101039.16
2023-04-28T08:20:15.665Z,101038.56
2023-04-28T08:22:42.815Z,101037.88
2023-04-28T08:25:10.844Z,101038.09
2023-04-28T08:27:40.782Z,101032.31
2023-04-28T08:30:09.363Z,101025.94
2023-04-28T08:32:36.917Z,101021.09
2023-04-28T08:35:04.872Z,101032.28
2023-04-28T08:37:32.078Z,101029.66
2023-04-28T08:40:02.386Z,101019.81
2023-04-28T08:42:30.684Z,101024.69
2023-04-28T08:44:59.828Z,101026.28
2023-04-28T08:47:35.103Z,101012.28
2023-04-28T08:50:07.301Z,101016.06
2023-04-28T08:52:35.530Z,101008.84
2023-04-28T08:55:11.128Z,101015.66
2023-04-28T08:57:42.069Z,101007.25
2023-04-28T09:00:09.815Z,101008.84
2023-04-28T09:02:42.570Z,101017.03
2023-04-28T09:05:11.987Z,101009.84
2023-04-28T09:07:40.333Z,101017.16
2023-04-28T09:10:17.084Z,101013.03
2023-04-28T09:12:44.902Z,101007.25
2023-04-28T09:15:34.807Z,101013.06
2023-04-28T09:18:06.403Z,101012.81
2023-04-28T09:20:34.929Z,101011.00
2023-04-28T09:23:31.630Z,101015.09
2023-04-28T09:25:59.517Z,101018.22
2023-04-28T09:28:27.231Z,101017.28
2023-04-28T09:30:54.907Z,101014.56
2023-04-28T09:33:22.503Z,101011.16
2023-04-28T09:35:50.386Z,101012.28
2023-04-28T09:38:19.573Z,101015.66
2023-04-28T09:41:00.012Z,101009.00
2023-04-28T09:43:34.651Z,101003.66
2023-04-28T09:46:04.207Z,101014.94
2023-04-28T09:48:36.370Z,101009.19
2023-04-28T09:51:09.544Z,101005.19
2023-04-28T09:53:39.086Z,100996.81
2023-04-28T09:56:06.591Z,100994.13
2023-04-28T09:58:35.319Z,100993.25
2023-04-28T10:01:03.376Z,100985.63
2023-04-28T10:03:31.371Z,100982.78
2023-04-28T10:05:59.331Z,100968.91
2023-04-28T10:08:27.621Z,100975.47
2023-04-28T10:10:56.960Z,100961.53
2023-04-28T10:13:24.756Z,100955.69
2023-04-28T10:15:55.431Z,100954.12
2023-04-28T10:18:24.246Z,100954.84
2023-04-28T10:20:58.760Z,100958.91
2023-04-28T10:23:54.295Z,100951.59
2023-04-28T10:26:22.005Z,100950.28
2023-04-28T10:28:51.418Z,100950.50
2023-04-28T10:31:23.259Z,100933.06
2023-04-28T10:33:50.927Z,100935.41
2023-04-28T10:36:54.628Z,100934.56
2023-04-28T10:39:22.187Z,100922.00
2023-04-28T10:41:49.571Z,100921.63
2023-04-28T10:44:28.981Z,100918.63
2023-04-28T10:47:09.942Z,100917.47
2023-04-28T10:49:58.662Z,100913.75
2023-04-28T10:52:41.336Z,100909.94
2023-04-28T10:55:41.879Z,100903.56
2023-04-28T10:58:15.484Z,100899.06
2023-04-28T11:00:45.295Z,100898.31
2023-04-28T11:03:37.852Z,100896.69
2023-04-28T11:06:23.886Z,100893.97
2023-04-28T11:08:51.776Z,100877.50
2023-04-28T11:11:21.247Z,100890.66
2023-04-28T11:13:49.342Z,100885.41
2023-04-28T11:16:26.064Z,100879.78
2023-04-28T11:18:57.467Z,100885.41
2023-04-28T11:21:26.220Z,100878.84
2023-04-28T11:23:53.507Z,100870.72
2023-04-28T11:26:21.038Z,100875.47
2023-04-28T11:28:53.750Z,100873.69
2023-04-28T11:31:24.897Z,100870.72
2023-04-28T11:33:55.894Z,100873.94
2023-04-28T11:36:36.005Z,100876.44
2023-04-28T11:39:05.328Z,100869.47
2023-04-28T11:41:32.597Z,100869.59
2023-04-28T11:44:00.215Z,100861.81
2023-04-28T11:46:27.846Z,100847.59
2023-04-28T11:49:04.504Z,100853.81
2023-04-28T11:51:38.774Z,100854.22
2023-04-28T11:54:12.016Z,100852.88
2023-04-28T11:56:40.729Z,100855.03
2023-04-28T11:59:10.559Z,100840.97
2023-04-28T12:01:59.308Z,100843.84
2023-04-28T12:04:28.240Z,100839.75
2023-04-28T12:07:03.773Z,100849.00
2023-04-28T12:09:32.372Z,100841.50
2023-04-28T12:12:02.956Z,100844.34
2023-04-28T12:14:33.020Z,100842.47
2023-04-28T12:17:00.432Z,100839.34
2023-04-28T12:19:27.851Z,100833.13
2023-04-28T12:22:06.065Z,100825.41
2023-04-28T12:24:41.056Z,100819.91
2023-04-28T12:27:21.618Z,100811.56
2023-04-28T12:29:49.100Z,100817.66
2023-04-28T12:32:17.391Z,100812.75
2023-04-28T12:34:46.397Z,100812.06
2023-04-28T12:37:13.826Z,100800.94
2023-04-28T12:39:42.323Z,100796.41
2023-04-28T12:42:09.681Z,100797.09
2023-04-28T12:44:37.719Z,100788.72
2023-04-28T12:47:11.147Z,100782.47
2023-04-28T12:49:38.628Z,100770.03
2023-04-28T12:52:06.895Z,100766.56
2023-04-28T12:54:34.224Z,100753.53
2023-04-28T12:57:03.017Z,100744.47
2023-04-28T12:59:31.241Z,100750.19
2023-04-28T13:01:58.923Z,100726.66
2023-04-28T13:04:26.695Z,100722.53
2023-04-28T13:06:54.411Z,100720.62
2023-04-28T13:09:21.615Z,100712.28
2023-04-28T13:11:48.845Z,100712.81
2023-04-28T13:14:16.392Z,100707.53
2023-04-28T13:16:43.613Z,100712.72
2023-04-28T13:19:13.809Z,100709.25
2023-04-28T13:21:42.458Z,100707.69
2023-04-28T13:24:10.779Z,100715.88
2023-04-28T13:26:38.199Z,100708.03
2023-04-28T13:29:08.209Z,100695.16
2023-04-28T13:31:35.995Z,100688.13
2023-04-28T13:34:05.307Z,100701.84
2023-04-28T13:36:33.266Z,100703.50
2023-04-28T13:39:02.347Z,100707.75
2023-04-28T13:41:29.881Z,100699.00
2023-04-28T13:43:57.379Z,100701.69
2023-04-28T13:46:24.655Z,100698.13
2023-04-28T13:48:51.900Z,100696.75
2023-04-28T13:51:19.451Z,100691.88
2023-04-28T13:53:46.701Z,100692.44
2023-04-28T13:56:13.947Z,100682.06
2023-04-28T13:58:41.593Z,100682.16
2023-04-28T14:01:09.095Z,100681.06
2023-04-28T14:03:37.493Z,100672.59
2023-04-28T14:06:05.096Z,100656.22
2023-04-28T14:08:32.947Z,100659.28
2023-04-28T14:11:01.119Z,100654.94
2023-04-28T14:13:29.711Z,100655.66
2023-04-28T14:15:59.664Z,100649.41
2023-04-28T14:18:28.468Z,100647.75
2023-04-28T14:20:56.138Z,100648.59
2023-04-28T14:23:23.530Z,100656.22
2023-04-28T14:25:56.026Z,100654.13
2023-04-28T14:28:23.837Z,100652.16
2023-04-28T14:30:53.842Z,100643.00
2023-04-28T14:33:21.197Z,100631.06
2023-04-28T14:35:48.764Z,100634.53
2023-04-28T14:38:16.515Z,100633.56
2023-04-28T14:40:43.711Z,100632.72
2023-04-28T14:43:14.114Z,100634.13
2023-04-28T14:45:42.002Z,100629.69
2023-04-28T14:48:10.599Z,100622.88
2023-04-28T14:50:37.943Z,100633.25
2023-04-28T14:53:08.494Z,100628.84
2023-04-28T14:55:35.680Z,100617.16
2023-04-28T14:58:03.639Z,100618.56
2023-04-28T15:00:31.457Z,100621.75
2023-04-28T15:02:58.917Z,100614.13
2023-04-28T15:05:26.336Z,100606.63
2023-04-28T15:07:53.827Z,100618.19
2023-04-28T15:10:21.272Z,100613.31
2023-04-28T15:12:48.982Z,100610.00
2023-04-28T15:15:16.753Z,100612.84
2023-04-28T15:17:45.447Z,100613.25
2023-04-28T15:20:12.667Z,100611.97
2023-04-28T15:22:40.970Z,100601.84
2023-04-28T15:25:08.420Z,100598.19
2023-04-28T15:27:35.532Z,100597.56
2023-04-28T15:30:03.034Z,100594.69
2023-04-28T15:32:31.708Z,100595.56
2023-04-28T15:34:59.428Z,100593.25
2023-04-28T15:37:41.594Z,100595.47
2023-04-28T15:40:11.183Z,100599.56
2023-04-28T15:42:39.279Z,100604.94
2023-04-28T15:45:07.249Z,100598.62
2023-04-28T15:47:34.454Z,100607.41
2023-04-28T15:50:02.041Z,100594.66
2023-04-28T15:52:29.367Z,100600.41
2023-04-28T15:54:56.612Z,100595.91
2023-04-28T15:57:24.162Z,100584.81
2023-04-28T15:59:51.840Z,100584.94
2023-04-28T16:02:22.284Z,100580.44
2023-04-28T16:04:50.196Z,100578.75
2023-04-28T16:07:17.611Z,100576.03
2023-04-28T16:09:44.865Z,100567.47
2023-04-28T16:12:12.528Z,100562.78
2023-04-28T16:14:39.774Z,100565.28
2023-04-28T16:17:07.268Z,100567.13
2023-04-28T16:19:35.226Z,100563.78
2023-04-28T16:22:02.565Z,100567.13
2023-04-28T16:24:30.309Z,100558.53
2023-04-28T16:26:57.831Z,100564.88
2023-04-28T16:29:25.146Z,100551.88
2023-04-28T16:31:52.407Z,100552.69
2023-04-28T16:34:19.897Z,100542.78
2023-04-28T16:36:47.348Z,100535.16
2023-04-28T16:39:15.201Z,100536.81
2023-04-28T16:41:42.758Z,100526.56
2023-04-28T16:44:10.035Z,100533.13
2023-04-28T16:46:37.368Z,100531.97
2023-04-28T16:49:05.100Z,100527.81
2023-04-28T16:51:33.093Z,100522.09
2023-04-28T16:54:01.150Z,100519.94
2023-04-28T16:56:29.492Z,100517.81
2023-04-28T16:58:56.653Z,100515.53
2023-04-28T17:01:23.851Z,100517.31
2023-04-28T17:03:51.750Z,100504.47
2023-04-28T17:06:19.100Z,100504.09
2023-04-28T17:08:46.246Z,100507.81
2023-04-28T17:11:16.575Z,100499.81
2023-04-28T17:13:43.783Z,100493.50
2023-04-28T17:16:11.564Z,100485.38
2023-04-28T17:18:39.136Z,100486.59
2023-04-28T17:21:06.482Z,100483.38
2023-04-28T17:23:33.716Z,100467.66
2023-04-28T17:26:03.252Z,100467.16
2023-04-28T17:28:31.325Z,100465.00
2023-04-28T17:30:59.004Z,100448.69
2023-04-28T17:33:26.509Z,100451.41
2023-04-28T17:35:53.749Z,100443.66
2023-04-28T17:38:20.961Z,100442.72
2023-04-28T17:40:48.732Z,100457.97
2023-04-28T17:43:16.826Z,100475.34
2023-04-28T17:45:44.048Z,100487.00
2023-04-28T17:48:12.778Z,100490.06
2023-04-28T17:50:40.081Z,100489.13
2023-04-28T17:53:07.312Z,100485.03
2023-04-28T17:55:34.868Z,100487.53
2023-04-28T17:58:02.085Z,100488.97
2023-04-28T18:00:29.313Z,100490.66
2023-04-28T18:02:56.869Z,100488.97
2023-04-28T18:05:25.978Z,100500.12
2023-04-28T18:07:53.312Z,100501.41
2023-04-28T18:10:22.142Z,100503.31
2023-04-28T18:12:50.530Z,100503.78
2023-04-28T18:15:19.533Z,100511.13
2023-04-28T18:17:47.088Z,100511.94
2023-04-28T18:20:14.313Z,100504.53
2023-04-28T18:22:41.457Z,100503.12
2023-04-28T18:25:09.593Z,100501.78
2023-04-28T18:27:36.928Z,100502.22
2023-04-28T18:30:04.623Z,100493.97
2023-04-28T18:32:33.764Z,100502.38
2023-04-28T18:35:01.076Z,100498.63
2023-04-28T18:37:28.633Z,100499.28
2023-04-28T18:39:57.155Z,100502.19
2023-04-28T18:42:24.640Z,100499.22
2023-04-28T18:44:58.982Z,100496.84
2023-04-28T18:47:26.582Z,100501.53
2023-04-28T18:49:54.153Z,100501.03
2023-04-28T18:52:21.364Z,100497.28
2023-04-28T18:54:48.863Z,100497.81
2023-04-28T18:57:16.902Z,100500.44
2023-04-28T18:59:44.116Z,100491.34
2023-04-28T19:02:11.741Z,100496.97
2023-04-28T19:04:42.125Z,100498.03
2023-04-28T19:07:09.463Z,100495.63
2023-04-28T19:09:38.010Z,100496.88
2023-04-28T19:12:05.772Z,100501.59
2023-04-28T19:14:33.378Z,100491.56
2023-04-28T19:17:01.028Z,100493.53
2023-04-28T19:19:28.325Z,100496.34
2023-04-28T19:21:55.665Z,100511.66
2023-04-28T19:24:23.584Z,100505.09
2023-04-28T19:26:51.758Z,100511.72
2023-04-28T19:29:20.071Z,100509.31
2023-04-28T19:31:48.995Z,100507.09
2023-04-28T19:34:16.250Z,100516.69
2023-04-28T19:36:43.958Z,100516.06
2023-04-28T19:39:11.386Z,100517.09
2023-04-28T19:41:38.713Z,100517.59
2023-04-28T19:44:05.855Z,100517.69
2023-04-28T19:46:33.336Z,100525.22
2023-04-28T19:49:00.511Z,100520.72
2023-04-28T19:51:27.811Z,100510.75
2023-04-28T19:53:55.355Z,100513.28
2023-04-28T19:56:22.478Z,100512.44
2023-04-28T19:58:49.608Z,100511.69
2023-04-28T20:01:17.083Z,100510.94
2023-04-28T20:03:44.674Z,100502.41
2023-04-28T20:06:17.462Z,100494.03
2023-04-28T20:08:45.770Z,100485.06
2023-04-28T20:11:13.039Z,100474.63
2023-04-28T20:13:40.215Z,100471.50
2023-04-28T20:16:07.738Z,100471.69
2023-04-28T20:18:35.839Z,100468.34
2023-04-28T20:21:03.561Z,100462.59
2023-04-28T20:23:31.105Z,100456.63
2023-04-28T20:25:59.297Z,100460.37
2023-04-28T20:28:26.521Z,100460.19
2023-04-28T20:30:54.500Z,100453.69
2023-04-28T20:33:21.749Z,100455.53
2023-04-28T20:35:48.940Z,100451.81
2023-04-28T20:38:16.747Z,100458.53
2023-04-28T20:40:44.619Z,100459.25
2023-04-28T20:43:11.882Z,100454.75
2023-04-28T20:45:41.883Z,100448.94
2023-04-28T20:48:09.142Z,100450.37
2023-04-28T20:50:39.844Z,100446.00
2023-04-28T20:53:07.650Z,100453.75
2023-04-28T20:55:34.820Z,100457.69
2023-04-28T20:58:02.118Z,100462.09
2023-04-28T21:00:29.629Z,100464.00
2023-04-28T21:02:57.024Z,100464.00
2023-04-28T21:05:24.350Z,100456.09
2023-04-28T21:07:51.897Z,100452.25
2023-04-28T21:10:19.114Z,100452.56
2023-04-28T21:12:46.643Z,100448.84
2023-04-28T21:15:14.225Z,100457.59
2023-04-28T21:17:41.510Z,100447.56
2023-04-28T21:20:09.307Z,100448.69
2023-04-28T21:22:36.811Z,100450.06
2023-04-28T21:25:05.726Z,100441.97
2023-04-28T21:27:32.915Z,100444.97
2023-04-28T21:30:00.591Z,100447.75
2023-04-28T21:32:27.883Z,100453.59
2023-04-28T21:34:55.465Z,100458.97
2023-04-28T21:37:23.083Z,100456.28
2023-04-28T21:39:51.139Z,100460.56
2023-04-28T21:42:18.585Z,100460.87
2023-04-28T21:44:46.132Z,100450.81
2023-04-28T21:47:15.763Z,100449.81
2023-04-28T21:49:43.966Z,100447.37
2023-04-28T21:52:11.471Z,100447.81
2023-04-28T21:54:38.666Z,100443.09
2023-04-28T21:57:05.842Z,100445.16
2023-04-28T21:59:33.758Z,100438.28
2023-04-28T22:02:01.840Z,100443.59
2023-04-28T22:04:29.882Z,100448.28
2023-04-28T22:06:57.265Z,100459.28
2023-04-28T22:09:24.521Z,100458.00
2023-04-28T22:11:52.271Z,100450.37
2023-04-28T22:14:35.598Z,100450.09
2023-04-28T22:17:07.174Z,100441.44
2023-04-28T22:19:34.323Z,100446.00
2023-04-28T22:22:01.541Z,100458.78
2023-04-28T22:24:29.106Z,100456.91
2023-04-28T22:26:56.316Z,100457.19
2023-04-28T22:29:23.526Z,100456.34
2023-04-28T22:31:51.194Z,100440.16
2023-04-28T22:34:18.937Z,100452.56
2023-04-28T22:36:47.432Z,100449.38
2023-04-28T22:39:15.559Z,100438.13
2023-04-28T22:41:42.735Z,100441.84
2023-04-28T22:44:10.260Z,100439.91
2023-04-28T22:46:39.050Z,100437.50
2023-04-28T22:49:06.274Z,100436.28
2023-04-28T22:51:33.526Z,100428.56
2023-04-28T22:54:01.791Z,100429.69
2023-04-28T22:56:29.033Z,100438.50
2023-04-28T22:58:56.216Z,100440.37
2023-04-28T23:01:24.409Z,100432.00
2023-04-28T23:03:51.745Z,100427.72
2023-04-28T23:06:19.023Z,100438.88
2023-04-28T23:08:46.480Z,100421.69
2023-04-28T23:11:13.735Z,100431.53
2023-04-28T23:13:40.957Z,100434.59
2023-04-28T23:16:08.586Z,100431.22
2023-04-28T23:18:35.900Z,100429.66
2023-04-28T23:21:03.142Z,100424.94
2023-04-28T23:23:30.765Z,100413.41
2023-04-28T23:25:57.978Z,100409.31
2023-04-28T23:28:25.262Z,100420.81
2023-04-28T23:30:52.794Z,100420.09
2023-04-28T23:33:20.065Z,100411.19
2023-04-28T23:35:47.229Z,100402.44
2023-04-28T23:38:14.768Z,100411.34
2023-04-28T23:40:42.198Z,100412.09
2023-04-28T23:43:09.389Z,100412.28
2023-04-28T23:45:36.988Z,100410.88
2023-04-28T23:48:04.640Z,100406.72
2023-04-28T23:50:31.837Z,100396.31
2023-04-28T23:52:59.346Z,100399.91
2023-04-28T23:55:26.522Z,100402.44
2023-04-28T23:57:53.776Z,100387.56
